Time;durP1;ratioP1;P1;durP2;ratioP2;P2;SDS_P1;SDS_P2;PMS_P1;PMS_P2;Temp;Humidity;BMP_temperature;BMP_pressure;BME280_temperature;BME280_humidity;BME280_pressure;Samples;Min_cycle;Max_cycle;Signal;HPM_P1;HPM_P2
2022/04/27 00:00:30;;;;;;;;;16.00;16.00;18.30;99.90;;;;;;4700892;30;8817;-65
2022/04/27 00:02:56;;;;;;;;;17.00;17.00;18.20;98.20;;;;;;4701057;30;8848;-65
2022/04/27 00:05:23;;;;;;;;;14.67;14.67;17.80;99.70;;;;;;4700647;30;8943;-66
2022/04/27 00:07:49;;;;;;;;;17.00;17.00;16.80;99.90;;;;;;4702786;30;8890;-66
2022/04/27 00:10:14;;;;;;;;;18.33;18.33;16.70;99.90;;;;;;4704014;30;8813;-67
2022/04/27 00:12:41;;;;;;;;;18.00;18.00;17.20;99.90;;;;;;4703898;30;8873;-66
2022/04/27 00:15:08;;;;;;;;;16.33;16.33;17.90;99.90;;;;;;4704007;30;8857;-66
2022/04/27 00:17:34;;;;;;;;;18.67;18.67;17.60;99.90;;;;;;4704254;30;8793;-66
2022/04/27 00:20:00;;;;;;;;;18.00;18.00;16.70;99.90;;;;;;4704182;30;8925;-66
2022/04/27 00:22:26;;;;;;;;;18.00;18.00;16.40;99.90;;;;;;4704149;30;8947;-68
2022/04/27 00:24:52;;;;;;;;;16.33;16.33;16.40;99.90;;;;;;4704112;30;8821;-66
2022/04/27 00:27:18;;;;;;;;;22.00;22.00;16.90;99.90;;;;;;4703938;30;8845;-68
2022/04/27 00:29:44;;;;;;;;;19.67;19.67;17.60;99.90;;;;;;4703799;30;8911;-65
2022/04/27 00:32:09;;;;;;;;;20.67;20.67;17.90;98.80;;;;;;4703606;30;8885;-66
2022/04/27 00:34:35;;;;;;;;;20.33;20.33;18.10;97.90;;;;;;4703953;30;8833;-66
2022/04/27 00:37:01;;;;;;;;;19.00;19.00;17.20;99.90;;;;;;4703895;30;8837;-67
2022/04/27 00:39:26;;;;;;;;;18.33;18.33;17.50;99.90;;;;;;4703577;30;8936;-66
2022/04/27 00:42:02;;;;;;;;;16.33;16.33;17.80;98.90;;;;;;4703487;30;8830;-66
2022/04/27 00:44:28;;;;;;;;;19.00;17.67;17.80;99.10;;;;;;4703791;30;9473;-66
2022/04/27 00:46:55;;;;;;;;;22.67;21.33;18.20;95.10;;;;;;4703491;30;8937;-67
2022/04/27 00:49:21;;;;;;;;;15.00;13.33;18.50;93.00;;;;;;4703453;30;8829;-66
2022/04/27 00:51:48;;;;;;;;;21.33;21.33;18.00;96.50;;;;;;4703559;30;8861;-66
2022/04/27 00:54:15;;;;;;;;;20.33;19.00;17.70;97.90;;;;;;4703618;30;8806;-67
2022/04/27 00:56:42;;;;;;;;;19.00;18.33;18.00;96.10;;;;;;4703236;30;8859;-67
2022/04/27 00:59:09;;;;;;;;;22.00;21.67;18.20;94.30;;;;;;4703299;30;8809;-66
2022/04/27 01:01:35;;;;;;;;;19.00;18.00;18.40;92.90;;;;;;4703429;30;9476;-66
2022/04/27 01:04:01;;;;;;;;;20.00;20.00;18.70;91.20;;;;;;4703419;30;9533;-68
2022/04/27 01:06:29;;;;;;;;;18.33;18.33;18.30;81.50;;;;;;4702940;30;8879;-65
2022/04/27 01:08:55;;;;;;;;;17.33;17.00;18.10;77.80;;;;;;4703125;30;8840;-68
2022/04/27 01:11:20;;;;;;;;;18.00;18.00;18.30;75.70;;;;;;4702921;30;8837;-67
2022/04/27 01:13:46;;;;;;;;;22.33;20.33;18.30;74.70;;;;;;4716413;30;8845;-67
2022/04/27 01:16:12;;;;;;;;;16.33;16.33;18.40;74.40;;;;;;4703166;30;8846;-67
2022/04/27 01:18:37;;;;;;;;;16.67;16.67;18.50;73.70;;;;;;4702553;30;8817;-67
2022/04/27 01:21:03;;;;;;;;;19.00;19.00;18.50;73.70;;;;;;4703068;30;8868;-66
2022/04/27 01:23:30;;;;;;;;;21.33;19.33;18.80;71.60;;;;;;4702843;30;8841;-65
2022/04/27 01:26:05;;;;;;;;;22.00;20.33;18.00;75.80;;;;;;4702787;30;8843;-65
2022/04/27 01:28:31;;;;;;;;;22.67;22.67;17.50;80.90;;;;;;4702112;30;8837;-68
2022/04/27 01:31:02;;;;;;;;;21.67;21.33;17.20;84.30;;;;;;4702689;30;8857;-66
2022/04/27 01:33:30;;;;;;;;;17.00;17.00;17.00;87.80;;;;;;4702614;30;8869;-66
2022/04/27 01:35:58;;;;;;;;;22.00;21.33;16.30;99.90;;;;;;4702793;30;8893;-65
2022/04/27 01:38:24;;;;;;;;;25.33;23.33;16.30;99.90;;;;;;4702595;30;8852;-65
2022/04/27 01:40:55;;;;;;;;;25.00;21.67;16.60;99.90;;;;;;4702492;30;8842;-65
2022/04/27 01:43:24;;;;;;;;;20.67;20.67;16.90;99.60;;;;;;4702522;30;8835;-65
2022/04/27 01:45:50;;;;;;;;;22.33;20.00;17.10;92.40;;;;;;4701399;30;8845;-66
2022/04/27 01:48:16;;;;;;;;;21.33;21.33;17.50;87.90;;;;;;4702022;30;8838;-67
2022/04/27 01:50:42;;;;;;;;;20.00;19.67;17.80;82.20;;;;;;4702315;30;8917;-67
2022/04/27 01:55:52;;;;;;;;;22.00;22.00;16.60;92.70;;;;;;4702159;30;8857;-67
2022/04/27 01:58:19;;;;;;;;;25.33;23.67;16.60;94.10;;;;;;4702260;30;8849;-68
2022/04/27 02:00:46;;;;;;;;;24.00;22.33;16.70;92.90;;;;;;4702419;30;8826;-65
2022/04/27 02:03:15;;;;;;;;;21.33;20.67;17.00;90.40;;;;;;4702355;30;8959;-65
2022/04/27 02:05:41;;;;;;;;;24.33;23.00;17.40;84.10;;;;;;4702024;30;8845;-65
2022/04/27 02:08:07;;;;;;;;;23.67;23.67;17.80;80.30;;;;;;4702132;30;8821;-65
2022/04/27 02:10:34;;;;;;;;;21.00;19.00;18.00;78.00;;;;;;4702125;30;8897;-65
2022/04/27 02:13:02;;;;;;;;;23.00;22.00;17.60;78.80;;;;;;4702232;30;8868;-65
2022/04/27 02:15:28;;;;;;;;;24.33;24.33;17.40;81.20;;;;;;4701970;30;8825;-67
2022/04/27 02:17:53;;;;;;;;;22.67;21.00;17.50;80.60;;;;;;4701962;30;8833;-67
2022/04/27 02:20:22;;;;;;;;;25.67;24.33;17.60;79.00;;;;;;4702084;30;8842;-65
2022/04/27 02:22:47;;;;;;;;;30.67;29.33;17.30;81.00;;;;;;4702104;30;9500;-66
2022/04/27 02:25:13;;;;;;;;;26.33;26.33;17.40;80.60;;;;;;4701823;30;8944;-65
2022/04/27 02:27:40;;;;;;;;;26.67;25.00;17.90;77.10;;;;;;4701814;30;8913;-66
2022/04/27 02:30:07;;;;;;;;;22.00;22.00;17.80;76.20;;;;;;4701356;30;8817;-66
2022/04/27 02:32:33;;;;;;;;;26.67;23.00;17.10;81.10;;;;;;4701626;30;8885;-66
2022/04/27 02:34:58;;;;;;;;;25.33;24.33;16.50;88.50;;;;;;4701896;30;8837;-67
2022/04/27 02:37:24;;;;;;;;;25.67;24.67;16.60;89.20;;;;;;4701969;30;8865;-66
2022/04/27 02:39:50;;;;;;;;;26.67;24.67;16.30;91.40;;;;;;4701574;30;8822;-66
2022/04/27 02:42:17;;;;;;;;;26.33;26.33;16.50;90.20;;;;;;4701865;30;8809;-66
2022/04/27 02:44:44;;;;;;;;;26.00;25.33;17.00;84.60;;;;;;4701639;30;8810;-65
2022/04/27 02:47:09;;;;;;;;;25.00;22.67;17.40;80.00;;;;;;4701517;30;8836;-67
2022/04/27 02:52:19;;;;;;;;;25.33;23.00;17.70;77.30;;;;;;4701481;30;8888;-66
2022/04/27 02:54:45;;;;;;;;;26.00;26.00;17.50;77.20;;;;;;4701407;30;8896;-66
2022/04/27 02:57:11;;;;;;;;;24.67;24.67;17.70;75.40;;;;;;4699819;30;8956;-66
2022/04/27 02:59:36;;;;;;;;;26.33;26.33;17.60;75.90;;;;;;4701318;30;8841;-66
2022/04/27 03:02:02;;;;;;;;;21.00;21.00;17.80;74.50;;;;;;4700753;30;8860;-67
2022/04/27 03:04:28;;;;;;;;;24.67;23.33;17.90;73.70;;;;;;4701311;30;8854;-67
2022/04/27 03:06:54;;;;;;;;;25.00;25.00;17.70;74.40;;;;;;4714711;30;8865;-65
2022/04/27 03:09:20;;;;;;;;;23.00;23.00;17.60;75.30;;;;;;4701452;30;8860;-65
2022/04/27 03:11:45;;;;;;;;;28.67;28.00;17.60;75.40;;;;;;4714587;30;8869;-66
2022/04/27 03:14:11;;;;;;;;;19.67;19.67;16.80;81.10;;;;;;4701106;30;9015;-65
2022/04/27 03:16:37;;;;;;;;;25.67;25.67;16.50;84.90;;;;;;4701393;30;8825;-66
2022/04/27 03:19:02;;;;;;;;;24.33;24.33;16.30;87.20;;;;;;4714584;30;9469;-66
2022/04/27 03:21:29;;;;;;;;;23.00;23.00;16.20;88.90;;;;;;4701278;30;8813;-65
2022/04/27 03:23:56;;;;;;;;;21.33;21.33;16.40;88.20;;;;;;4701161;30;8844;-65
2022/04/27 03:26:22;;;;;;;;;27.00;27.00;17.10;82.00;;;;;;4701250;30;8826;-65
2022/04/27 03:28:48;;;;;;;;;24.33;22.00;17.00;80.50;;;;;;4701003;30;8844;-64
2022/04/27 03:31:13;;;;;;;;;23.33;22.33;17.40;77.90;;;;;;4701030;30;8829;-66
2022/04/27 03:33:39;;;;;;;;;29.33;25.00;17.40;76.70;;;;;;4700909;30;8955;-64
2022/04/27 03:36:08;;;;;;;;;24.33;23.00;17.60;75.20;;;;;;4701133;30;8849;-65
2022/04/27 03:38:35;;;;;;;;;26.33;25.33;18.00;73.80;;;;;;4700669;30;8850;-65
2022/04/27 03:41:01;;;;;;;;;28.00;25.67;17.90;72.60;;;;;;4698382;30;8926;-66
2022/04/27 03:43:26;;;;;;;;;26.67;25.00;17.80;73.90;;;;;;4704477;30;8817;-66
2022/04/27 03:45:52;;;;;;;;;29.67;28.00;17.40;76.00;;;;;;4704431;30;8822;-65
2022/04/27 03:48:18;;;;;;;;;29.00;27.33;16.90;82.20;;;;;;4704376;30;8821;-65
2022/04/27 03:50:44;;;;;;;;;30.00;27.67;16.40;85.70;;;;;;4704540;30;8837;-65
2022/04/27 03:53:09;;;;;;;;;28.33;28.33;16.60;86.10;;;;;;4704491;30;9500;-65
2022/04/27 03:55:36;;;;;;;;;31.00;29.00;17.20;81.30;;;;;;4704073;30;8879;-65
2022/04/27 03:58:05;;;;;;;;;28.67;28.67;17.80;76.20;;;;;;4704226;30;8952;-65
2022/04/27 04:00:32;;;;;;;;;20.00;20.00;18.10;73.80;;;;;;4704174;30;8931;-64
2022/04/27 04:03:02;;;;;;;;;26.00;26.00;18.10;72.80;;;;;;4704151;30;8833;-64
2022/04/27 04:05:29;;;;;;;;;26.67;26.67;17.60;75.70;;;;;;4704284;30;8833;-66
2022/04/27 04:07:55;;;;;;;;;32.67;29.33;17.80;74.50;;;;;;4704121;30;8838;-66
2022/04/27 04:10:21;;;;;;;;;29.00;28.67;18.10;72.90;;;;;;4704056;30;8842;-65
2022/04/27 04:12:47;;;;;;;;;29.67;29.67;17.70;75.00;;;;;;4703914;30;8877;-64
2022/04/27 04:15:14;;;;;;;;;30.00;27.67;17.90;74.50;;;;;;4704034;30;8798;-65
2022/04/27 04:17:48;;;;;;;;;31.67;29.33;18.10;73.80;;;;;;4703903;30;8845;-64
2022/04/27 04:20:17;;;;;;;;;34.67;32.00;18.10;73.30;;;;;;4703899;30;8825;-65
2022/04/27 04:22:44;;;;;;;;;31.67;30.67;18.00;73.30;;;;;;4704116;30;8915;-67
2022/04/27 04:30:39;;;;;;;;;37.67;34.67;17.70;75.60;;;;;;4703835;30;8810;-65
2022/04/27 04:33:05;;;;;;;;;36.00;33.00;17.70;76.30;;;;;;4703585;30;8905;-65
2022/04/27 04:35:31;;;;;;;;;36.00;34.00;17.70;75.70;;;;;;4703772;30;8944;-65
2022/04/27 04:37:57;;;;;;;;;38.33;33.00;17.60;76.60;;;;;;4703616;30;8874;-64
2022/04/27 04:40:23;;;;;;;;;31.00;31.00;17.20;79.40;;;;;;4701978;30;8830;-66
2022/04/27 04:42:48;;;;;;;;;37.33;32.33;17.40;80.10;;;;;;4703515;30;8963;-65
2022/04/27 04:45:14;;;;;;;;;36.67;33.33;17.80;77.30;;;;;;4703089;30;8930;-64
2022/04/27 04:47:42;;;;;;;;;33.00;31.33;17.80;76.50;;;;;;4703307;30;8858;-65
2022/04/27 04:50:08;;;;;;;;;34.33;32.00;18.20;74.90;;;;;;4703371;30;8852;-64
2022/04/27 04:52:34;;;;;;;;;39.25;33.25;18.00;75.50;;;;;;4702563;30;8869;-65
2022/04/27 04:55:00;;;;;;;;;44.00;37.00;17.80;76.60;;;;;;4703059;30;8860;-65
2022/04/27 04:57:26;;;;;;;;;42.75;37.50;17.90;75.70;;;;;;4703210;30;8852;-65
2022/04/27 04:59:51;;;;;;;;;43.67;37.00;18.40;73.40;;;;;;4716371;30;8845;-66
2022/04/27 05:02:17;;;;;;;;;44.00;37.33;18.20;73.20;;;;;;4703235;30;8832;-64
2022/04/27 05:04:43;;;;;;;;;38.00;32.00;18.30;73.80;;;;;;4703084;30;8814;-65
2022/04/27 05:07:09;;;;;;;;;41.00;36.33;18.40;72.60;;;;;;4703499;30;8873;-66
2022/04/27 05:09:35;;;;;;;;;36.00;33.00;18.60;72.20;;;;;;4703182;30;8825;-66
2022/04/27 05:12:01;;;;;;;;;37.33;33.67;18.90;70.80;;;;;;4703273;30;8976;-64
2022/04/27 05:14:26;;;;;;;;;38.33;33.33;18.80;71.60;;;;;;4703085;30;8966;-64
2022/04/27 05:16:52;;;;;;;;;28.33;28.33;17.80;75.60;;;;;;4703044;30;8837;-64
2022/04/27 05:19:18;;;;;;;;;28.67;28.33;17.50;80.10;;;;;;4702912;30;8857;-64
2022/04/27 05:21:43;;;;;;;;;24.33;23.67;18.30;74.10;;;;;;4702920;30;8855;-65
2022/04/27 05:24:11;;;;;;;;;25.00;25.00;18.80;71.00;;;;;;4703026;30;8876;-66
2022/04/27 05:26:37;;;;;;;;;26.67;26.67;18.80;70.70;;;;;;4702697;30;8848;-66
2022/04/27 05:32:03;;;;;;;;;28.67;28.00;18.70;72.70;;;;;;4691850;30;8923;-65
2022/04/27 05:34:30;;;;;;;;;34.67;34.00;19.20;68.70;;;;;;4702889;30;9497;-66
2022/04/27 05:36:56;;;;;;;;;35.67;31.67;19.00;69.90;;;;;;4701896;30;8876;-65
2022/04/27 05:39:23;;;;;;;;;31.67;29.00;19.20;69.60;;;;;;4702513;30;8899;-65
2022/04/27 05:41:50;;;;;;;;;36.33;31.67;19.60;68.00;;;;;;4702589;30;8837;-65
2022/04/27 05:44:17;;;;;;;;;30.67;30.33;19.70;67.00;;;;;;4702709;30;8841;-64
2022/04/27 05:46:42;;;;;;;;;32.00;30.67;19.20;68.20;;;;;;4702733;30;9492;-66
2022/04/27 05:49:08;;;;;;;;;31.33;31.33;19.50;67.90;;;;;;4702430;30;8836;-65
2022/04/27 05:51:35;;;;;;;;;32.00;29.67;19.70;66.10;;;;;;4702266;30;8822;-65
2022/04/27 05:54:01;;;;;;;;;28.67;28.67;19.50;66.80;;;;;;4702587;30;9500;-64
2022/04/27 05:56:27;;;;;;;;;31.00;30.00;19.90;66.10;;;;;;4702069;30;8894;-65
2022/04/27 05:58:53;;;;;;;;;34.00;30.33;20.00;66.70;;;;;;4702288;30;8844;-65
2022/04/27 06:01:19;;;;;;;;;30.67;30.67;20.30;66.10;;;;;;4702135;30;8845;-66
2022/04/27 06:03:45;;;;;;;;;17.33;14.00;20.30;65.60;;;;;;4701853;30;8899;-65
2022/04/27 06:06:11;;;;;;;;;28.67;28.67;20.20;64.50;;;;;;4701546;30;8968;-65
2022/04/27 06:08:37;;;;;;;;;31.00;31.00;19.40;69.40;;;;;;4702134;30;8852;-66
2022/04/27 06:11:02;;;;;;;;;27.33;26.67;19.20;71.40;;;;;;4701929;30;8853;-65
2022/04/27 06:13:29;;;;;;;;;24.33;23.33;19.40;71.00;;;;;;4701889;30;8900;-65
2022/04/27 06:15:55;;;;;;;;;30.33;28.00;20.20;67.10;;;;;;4702277;30;8810;-65
2022/04/27 06:18:20;;;;;;;;;28.33;28.33;20.40;66.30;;;;;;4701920;30;9532;-65
2022/04/27 06:20:46;;;;;;;;;30.33;29.33;20.20;66.00;;;;;;4701919;30;8809;-65
2022/04/27 06:23:13;;;;;;;;;30.00;27.00;19.80;68.90;;;;;;4701857;30;8939;-65
2022/04/27 06:25:40;;;;;;;;;26.67;26.00;19.90;68.20;;;;;;4701804;30;8825;-66
2022/04/27 06:28:07;;;;;;;;;33.00;31.33;19.50;69.20;;;;;;4696589;30;8844;-65
2022/04/27 06:30:35;;;;;;;;;31.67;29.67;19.70;68.50;;;;;;4683903;30;8914;-65
2022/04/27 06:33:01;;;;;;;;;30.00;29.33;20.10;66.60;;;;;;4697800;30;8891;-66
2022/04/27 06:35:27;;;;;;;;;28.67;28.33;20.60;65.00;;;;;;4684246;30;8843;-64
2022/04/27 06:37:53;;;;;;;;;25.00;24.00;20.80;63.80;;;;;;4684105;30;8966;-64
2022/04/27 06:40:18;;;;;;;;;29.00;27.67;20.90;64.10;;;;;;4684427;30;8808;-65
2022/04/27 06:42:45;;;;;;;;;29.00;29.00;20.80;63.20;;;;;;4684370;30;9400;-66
2022/04/27 06:45:11;;;;;;;;;33.33;32.67;20.60;64.10;;;;;;4683781;30;8832;-67
2022/04/27 06:47:37;;;;;;;;;35.00;32.67;20.60;64.30;;;;;;4684207;30;8828;-66
2022/04/27 06:50:04;;;;;;;;;27.00;26.67;20.40;65.00;;;;;;4684255;30;8935;-65
2022/04/27 06:52:30;;;;;;;;;30.33;30.33;20.60;64.30;;;;;;4683995;30;8883;-65
2022/04/27 06:54:56;;;;;;;;;33.00;29.67;20.40;63.80;;;;;;4683877;30;8864;-65
2022/04/27 06:57:21;;;;;;;;;31.00;30.33;20.30;64.40;;;;;;4683974;30;8838;-64
2022/04/27 06:59:47;;;;;;;;;36.00;30.00;20.60;65.50;;;;;;4684312;30;8934;-68
2022/04/27 07:02:14;;;;;;;;;33.00;31.00;20.40;65.40;;;;;;4683998;30;8925;-66
2022/04/27 07:04:51;;;;;;;;;37.00;33.33;20.60;65.00;;;;;;4683979;30;8840;-70
2022/04/27 07:07:17;;;;;;;;;34.33;33.00;20.50;64.80;;;;;;4684292;30;8868;-70
2022/04/27 07:09:43;;;;;;;;;33.33;31.33;19.70;68.00;;;;;;4684141;30;8946;-69
2022/04/27 07:12:09;;;;;;;;;29.67;28.33;19.90;68.70;;;;;;4683808;30;8899;-69
2022/04/27 07:14:34;;;;;;;;;32.33;28.67;20.20;68.50;;;;;;4684080;30;8812;-69
2022/04/27 07:17:01;;;;;;;;;32.67;29.67;20.00;68.50;;;;;;4683830;30;8855;-69
2022/04/27 07:19:27;;;;;;;;;34.67;31.67;20.20;68.80;;;;;;4683898;30;8834;-70
2022/04/27 07:21:53;;;;;;;;;36.00;34.33;19.90;68.60;;;;;;4683822;30;8836;-69
2022/04/27 07:24:20;;;;;;;;;37.67;35.00;19.70;70.20;;;;;;4683943;30;8823;-70
2022/04/27 07:26:46;;;;;;;;;32.33;31.67;20.00;70.40;;;;;;4684023;30;8838;-69
2022/04/27 07:29:12;;;;;;;;;33.33;32.00;20.50;66.80;;;;;;4683711;30;8828;-69
2022/04/27 07:31:38;;;;;;;;;34.67;33.67;20.00;68.90;;;;;;4683639;30;8820;-69
2022/04/27 07:34:03;;;;;;;;;39.00;35.33;20.40;69.00;;;;;;4683841;30;8828;-70
2022/04/27 07:36:29;;;;;;;;;34.33;32.33;20.40;67.50;;;;;;4684045;30;8876;-69
2022/04/27 07:38:55;;;;;;;;;35.67;33.33;20.50;66.80;;;;;;4683975;30;8910;-69
2022/04/27 07:41:21;;;;;;;;;28.67;26.33;20.10;67.70;;;;;;4683570;30;9491;-69
2022/04/27 07:43:46;;;;;;;;;27.00;25.67;20.20;66.60;;;;;;4697234;30;8902;-70
2022/04/27 07:46:12;;;;;;;;;23.33;21.33;20.70;63.90;;;;;;4683842;30;8840;-70
2022/04/27 07:48:38;;;;;;;;;19.67;19.67;20.80;59.60;;;;;;4683541;30;9471;-70
2022/04/27 07:51:06;;;;;;;;;19.33;15.67;21.30;58.30;;;;;;4683793;30;8828;-69
2022/04/27 07:53:32;;;;;;;;;15.00;15.00;20.90;59.60;;;;;;4683730;30;8851;-69
2022/04/27 07:55:58;;;;;;;;;14.67;13.00;21.10;57.90;;;;;;4683406;30;8888;-69
2022/04/27 07:58:24;;;;;;;;;12.33;11.33;21.00;59.30;;;;;;4683476;30;8832;-69
2022/04/27 08:00:50;;;;;;;;;16.00;14.00;21.30;56.40;;;;;;4683530;30;8844;-69
2022/04/27 08:03:16;;;;;;;;;12.00;12.00;22.00;54.80;;;;;;4683481;30;8832;-69
2022/04/27 08:05:41;;;;;;;;;10.67;10.67;22.40;52.60;;;;;;4683226;30;8878;-69
2022/04/27 08:08:08;;;;;;;;;14.67;14.67;22.50;53.00;;;;;;4683532;30;8905;-70
2022/04/27 08:10:34;;;;;;;;;13.33;13.33;22.70;50.80;;;;;;4683638;30;8824;-70
2022/04/27 08:13:00;;;;;;;;;15.67;15.00;22.80;51.20;;;;;;4683233;30;8884;-68
2022/04/27 08:15:26;;;;;;;;;18.00;18.00;21.80;53.40;;;;;;4683561;30;8820;-69
2022/04/27 08:18:03;;;;;;;;;15.33;15.33;21.30;55.80;;;;;;4683378;30;8930;-69
2022/04/27 08:23:16;;;;;;;;;21.00;20.67;22.20;54.60;;;;;;4683406;30;8784;-70
2022/04/27 08:25:45;;;;;;;;;19.67;19.67;21.90;53.60;;;;;;4683457;30;8809;-71
2022/04/27 08:28:11;;;;;;;;;30.67;30.33;21.00;58.40;;;;;;4684610;30;8856;-71
2022/04/27 08:30:40;;;;;;;;;33.67;31.67;20.80;59.70;;;;;;4686698;30;8831;-70
2022/04/27 08:33:08;;;;;;;;;28.00;27.67;20.50;64.60;;;;;;4686305;30;8941;-69
2022/04/27 08:35:34;;;;;;;;;26.00;26.00;20.70;64.60;;;;;;4686298;30;8804;-70
2022/04/27 08:38:01;;;;;;;;;25.67;25.67;20.90;64.80;;;;;;4686507;30;8840;-70
2022/04/27 08:40:27;;;;;;;;;24.67;23.33;21.60;61.90;;;;;;4686442;30;8808;-70
2022/04/27 08:42:54;;;;;;;;;21.00;21.00;21.70;61.20;;;;;;4686159;30;8832;-69
2022/04/27 08:45:21;;;;;;;;;22.67;22.67;21.10;62.20;;;;;;4686224;30;8895;-70
2022/04/27 08:47:48;;;;;;;;;19.67;18.67;20.50;63.40;;;;;;4686150;30;8942;-70
2022/04/27 08:50:16;;;;;;;;;22.00;22.00;20.50;63.70;;;;;;4686058;30;8832;-69
2022/04/27 08:52:43;;;;;;;;;19.67;19.67;21.20;62.00;;;;;;4686204;30;8867;-69
2022/04/27 08:55:10;;;;;;;;;17.33;17.33;21.00;62.70;;;;;;4685879;30;8824;-70
2022/04/27 08:57:36;;;;;;;;;16.00;15.00;21.10;61.00;;;;;;4686049;30;8947;-70
2022/04/27 09:00:08;;;;;;;;;18.00;16.33;21.80;58.60;;;;;;4685966;30;8832;-70
2022/04/27 09:02:35;;;;;;;;;16.00;16.00;22.10;57.40;;;;;;4686110;30;8951;-70
2022/04/27 09:05:13;;;;;;;;;15.00;15.00;21.80;58.60;;;;;;4685958;30;8836;-70
2022/04/27 09:07:50;;;;;;;;;16.67;16.67;21.70;59.60;;;;;;4685985;30;11867;-70
2022/04/27 09:10:18;;;;;;;;;16.33;16.33;21.70;58.60;;;;;;4684841;30;8859;-70
2022/04/27 09:12:57;;;;;;;;;13.33;11.33;21.90;57.60;;;;;;4685784;30;8880;-70
2022/04/27 09:15:25;;;;;;;;;12.67;11.67;21.80;57.50;;;;;;4685721;30;11762;-70
2022/04/27 09:20:47;;;;;;;;;14.00;14.00;22.20;57.50;;;;;;4685647;30;11759;-70
2022/04/27 09:23:28;;;;;;;;;10.67;10.67;22.40;56.80;;;;;;4685756;30;11810;-69
2022/04/27 09:26:13;;;;;;;;;11.00;11.00;22.50;56.30;;;;;;4685441;30;11738;-70
2022/04/27 09:28:38;;;;;;;;;9.25;9.25;22.60;55.40;;;;;;4685496;30;11693;-70
2022/04/27 09:31:04;;;;;;;;;12.00;12.00;22.60;52.90;;;;;;4685611;30;11757;-70
2022/04/27 09:33:38;;;;;;;;;11.00;11.00;22.10;54.30;;;;;;4685409;30;8884;-70
2022/04/27 09:36:23;;;;;;;;;14.33;13.00;22.00;55.80;;;;;;4685486;30;8852;-69
2022/04/27 09:38:50;;;;;;;;;23.67;22.67;21.60;55.80;;;;;;4685101;30;11752;-70
2022/04/27 09:41:39;;;;;;;;;22.67;22.67;21.50;62.00;;;;;;4685531;30;9479;-70
2022/04/27 09:44:05;;;;;;;;;26.33;26.33;21.00;62.90;;;;;;4685599;30;8820;-70
2022/04/27 09:46:31;;;;;;;;;24.67;24.67;21.20;63.00;;;;;;4685468;30;8835;-71
2022/04/27 09:49:12;;;;;;;;;22.00;21.33;21.50;63.10;;;;;;4685250;30;8804;-71
2022/04/27 09:52:05;;;;;;;;;18.67;18.67;21.20;63.10;;;;;;4685131;30;8816;-69
2022/04/27 09:54:34;;;;;;;;;20.33;20.33;21.40;61.40;;;;;;4685472;30;8824;-70
2022/04/27 09:57:03;;;;;;;;;19.67;17.67;21.60;62.60;;;;;;4685315;30;8840;-70
2022/04/27 09:59:35;;;;;;;;;18.00;18.00;21.80;61.80;;;;;;4685044;30;8823;-70
2022/04/27 10:02:09;;;;;;;;;15.33;15.33;22.00;60.80;;;;;;4684957;30;8836;-70
2022/04/27 10:04:36;;;;;;;;;15.33;15.33;22.40;60.90;;;;;;4685132;30;8890;-69
2022/04/27 10:07:05;;;;;;;;;16.00;14.67;22.20;59.30;;;;;;4685112;30;8866;-69
2022/04/27 10:09:31;;;;;;;;;21.00;21.00;22.90;59.00;;;;;;4684574;30;11869;-70
2022/04/27 10:11:59;;;;;;;;;18.00;15.33;22.90;56.50;;;;;;4684442;30;8844;-70
2022/04/27 10:14:26;;;;;;;;;14.00;14.00;23.10;56.40;;;;;;4684537;30;11772;-70
2022/04/27 10:16:53;;;;;;;;;17.00;17.00;22.80;55.30;;;;;;4684431;30;11737;-69
2022/04/27 10:19:19;;;;;;;;;16.00;16.00;22.90;55.60;;;;;;4684631;30;8812;-69
2022/04/27 10:21:56;;;;;;;;;12.67;12.67;23.20;54.90;;;;;;4684648;30;11741;-69
2022/04/27 10:24:51;;;;;;;;;13.33;13.33;23.10;52.20;;;;;;4684501;30;11768;-69
2022/04/27 10:27:18;;;;;;;;;12.33;12.33;23.20;49.80;;;;;;4685556;30;11761;-69
2022/04/27 10:29:51;;;;;;;;;15.25;13.25;23.00;51.10;;;;;;4684553;30;11764;-69
2022/04/27 10:32:42;;;;;;;;;14.00;13.33;23.30;50.90;;;;;;4684314;30;11771;-70
2022/04/27 10:35:30;;;;;;;;;15.67;15.67;23.60;52.60;;;;;;4697613;30;11741;-70
2022/04/27 10:37:58;;;;;;;;;13.67;13.67;23.50;51.80;;;;;;4684298;30;11809;-69
2022/04/27 10:40:34;;;;;;;;;15.67;15.67;23.10;53.10;;;;;;4684402;30;11739;-69
2022/04/27 10:43:06;;;;;;;;;15.00;15.00;22.70;52.10;;;;;;4684329;30;11775;-69
2022/04/27 10:45:33;;;;;;;;;14.00;14.00;22.30;56.50;;;;;;4684341;30;11744;-69
2022/04/27 10:47:59;;;;;;;;;15.00;14.00;22.70;54.60;;;;;;4684332;30;11731;-69
2022/04/27 10:50:29;;;;;;;;;14.33;13.67;23.00;52.00;;;;;;4683661;30;11770;-69
2022/04/27 10:52:56;;;;;;;;;14.00;14.00;23.20;52.90;;;;;;4684093;30;8870;-69
2022/04/27 10:55:43;;;;;;;;;12.00;12.00;23.30;51.60;;;;;;4683979;30;11776;-69
2022/04/27 10:58:31;;;;;;;;;14.33;14.00;24.00;51.80;;;;;;4684024;30;11844;-69
2022/04/27 11:01:02;;;;;;;;;13.25;13.25;23.90;50.60;;;;;;4684242;30;11879;-69
2022/04/27 11:03:36;;;;;;;;;12.67;12.67;23.70;49.70;;;;;;4683731;30;11762;-69
2022/04/27 11:06:06;;;;;;;;;13.33;13.33;23.70;49.70;;;;;;4683895;30;11765;-69
2022/04/27 11:09:09;;;;;;;;;12.75;12.75;23.90;49.40;;;;;;4683661;30;11813;-70
2022/04/27 11:11:55;;;;;;;;;12.00;12.00;24.10;51.30;;;;;;4683939;30;11781;-69
2022/04/27 11:14:27;;;;;;;;;10.25;10.25;24.30;51.00;;;;;;4684001;30;11767;-69
2022/04/27 11:16:52;;;;;;;;;9.00;9.00;24.60;49.80;;;;;;4683776;30;11741;-70
2022/04/27 11:19:18;;;;;;;;;11.75;11.50;25.60;47.80;;;;;;4683946;30;11704;-69
2022/04/27 11:21:46;;;;;;;;;10.25;10.00;26.50;45.20;;;;;;4683593;30;8982;-69
2022/04/27 11:24:13;;;;;;;;;9.25;9.25;26.80;42.00;;;;;;4684041;30;8823;-65
2022/04/27 11:26:46;;;;;;;;;11.00;11.00;26.10;44.50;;;;;;4683705;30;11767;-65
2022/04/27 11:29:13;;;;;;;;;11.00;11.00;25.90;43.40;;;;;;4683513;30;11768;-66
2022/04/27 11:31:43;;;;;;;;;11.50;11.50;25.70;42.60;;;;;;4683784;30;11730;-65
2022/04/27 11:34:27;;;;;;;;;10.50;10.50;25.50;46.20;;;;;;4683553;30;11791;-63
2022/04/27 11:36:54;;;;;;;;;11.00;10.00;26.20;44.20;;;;;;4683634;30;11732;-64
2022/04/27 11:39:24;;;;;;;;;8.75;8.75;26.70;43.20;;;;;;4683682;30;11780;-64
2022/04/27 11:42:03;;;;;;;;;10.25;10.25;26.80;41.30;;;;;;4683563;30;11793;-64
2022/04/27 11:44:30;;;;;;;;;11.25;11.25;26.80;40.90;;;;;;4691510;30;11751;-64
2022/04/27 11:46:58;;;;;;;;;9.00;9.00;27.20;41.30;;;;;;4700569;30;11828;-64
2022/04/27 11:49:24;;;;;;;;;6.00;6.00;27.20;40.90;;;;;;4700858;30;11690;-66
2022/04/27 11:51:50;;;;;;;;;8.25;8.25;27.00;41.10;;;;;;4714161;30;11721;-66
2022/04/27 11:54:30;;;;;;;;;9.00;9.00;27.00;39.20;;;;;;4700874;30;12518;-65
2022/04/27 11:56:57;;;;;;;;;11.50;11.50;27.00;40.80;;;;;;4700293;30;11850;-67
2022/04/27 11:59:24;;;;;;;;;11.00;11.00;26.80;42.30;;;;;;4700090;30;11732;-66
2022/04/27 12:01:53;;;;;;;;;12.25;12.25;27.40;38.80;;;;;;4701176;30;11890;-67
2022/04/27 12:04:19;;;;;;;;;10.75;10.75;27.40;39.90;;;;;;4704143;30;11742;-67
2022/04/27 12:06:46;;;;;;;;;12.00;12.00;27.10;38.20;;;;;;4704202;30;11754;-64
2022/04/27 12:09:18;;;;;;;;;18.33;18.33;26.70;41.60;;;;;;4703853;30;11734;-66
2022/04/27 12:11:45;;;;;;;;;14.00;14.00;27.00;39.70;;;;;;4703769;30;11758;-67
2022/04/27 12:14:12;;;;;;;;;22.67;22.67;27.20;41.10;;;;;;4703302;30;11748;-63
2022/04/27 12:16:43;;;;;;;;;15.75;15.75;27.50;39.60;;;;;;4703288;30;11773;-66
2022/04/27 12:19:09;;;;;;;;;16.50;16.50;28.00;38.70;;;;;;4702399;30;11747;-65
2022/04/27 12:21:37;;;;;;;;;14.00;14.00;27.80;39.50;;;;;;4703123;30;11831;-65
2022/04/27 12:24:16;;;;;;;;;18.00;18.00;27.70;39.10;;;;;;4702551;30;8907;-66
2022/04/27 12:26:41;;;;;;;;;11.75;11.75;27.80;37.50;;;;;;4700694;30;11796;-66
2022/04/27 12:29:07;;;;;;;;;12.00;12.00;28.50;38.20;;;;;;4701945;30;11751;-64
2022/04/27 12:31:34;;;;;;;;;12.75;12.75;28.20;39.40;;;;;;4703561;30;8903;-65
2022/04/27 12:37:29;;;;;;;;;13.25;13.25;27.80;39.30;;;;;;4703379;30;12428;-65
2022/04/27 12:39:39;;;;;;;;;10.50;10.50;27.20;38.10;;;;;;4700975;30;11829;-66
2022/04/27 12:42:08;;;;;;;;;14.50;14.50;27.80;37.60;;;;;;4701495;30;11723;-68
2022/04/27 12:44:42;;;;;;;;;12.25;12.25;27.90;37.10;;;;;;4700812;30;11764;-60
2022/04/27 12:47:16;;;;;;;;;11.75;11.75;27.60;37.50;;;;;;4702391;30;12484;-65
2022/04/27 12:49:44;;;;;;;;;14.25;14.25;27.70;37.50;;;;;;4700211;30;11737;-65
2022/04/27 12:52:26;;;;;;;;;10.00;10.00;28.40;37.40;;;;;;4702314;30;11765;-69
2022/04/27 12:55:12;;;;;;;;;14.00;14.00;28.20;37.00;;;;;;4703218;30;12495;-66
2022/04/27 12:57:49;;;;;;;;;16.50;16.50;28.90;36.30;;;;;;4685147;30;11834;-69
2022/04/27 13:00:17;;;;;;;;;14.50;14.50;29.00;35.20;;;;;;4694655;30;11767;-69
2022/04/27 13:02:46;;;;;;;;;12.50;12.50;28.80;34.80;;;;;;4700591;30;12484;-70